Time;durP1;ratioP1;P1;durP2;ratioP2;P2;SDS_P1;SDS_P2;PMS_P1;PMS_P2;Temp;Humidity;BMP_temperature;BMP_pressure;BME280_temperature;BME280_humidity;BME280_pressure;Samples;Min_cycle;Max_cycle;Signal;HPM_P1;HPM_P2
2022/11/17 00:00:18;;;;;;;10.82;9.38;;;;;;;6.35;100.00;99596.63;5059681;28;20028;-73
2022/11/17 00:02:44;;;;;;;9.93;7.22;;;;;;;6.20;100.00;99559.69;5077408;28;20468;-74
2022/11/17 00:05:09;;;;;;;37.55;35.63;;;;;;;6.30;100.00;99576.13;5044923;28;20051;-73
2022/11/17 00:07:34;;;;;;;25.42;23.95;;;;;;;6.31;100.00;99592.66;5059662;28;20032;-73
2022/11/17 00:10:00;;;;;;;14.25;13.20;;;;;;;6.33;100.00;99562.72;5077256;28;20052;-73
2022/11/17 00:15:09;;;;;;;7.38;6.78;;;;;;;6.28;100.00;99558.91;5061921;28;20095;-73
2022/11/17 00:17:34;;;;;;;33.22;31.40;;;;;;;6.07;100.00;99543.53;5078012;28;20468;-73
2022/11/17 00:22:44;;;;;;;17.80;16.73;;;;;;;6.13;100.00;99563.88;5079155;28;20059;-72
2022/11/17 00:25:09;;;;;;;7.00;6.05;;;;;;;5.97;100.00;99533.16;5059472;28;20061;-73
2022/11/17 00:27:34;;;;;;;6.15;4.63;;;;;;;5.94;100.00;99533.44;5042491;28;20043;-73
2022/11/17 00:30:00;;;;;;;23.45;22.15;;;;;;;6.04;100.00;99536.00;5058548;28;20028;-73
2022/11/17 00:35:09;;;;;;;5.60;5.13;;;;;;;5.87;100.00;99493.94;5077050;28;20123;-73
2022/11/17 00:37:37;;;;;;;14.18;13.27;;;;;;;5.81;100.00;99522.53;5044474;28;20043;-73
2022/11/17 00:40:04;;;;;;;14.82;14.00;;;;;;;5.92;100.00;99522.28;5075322;28;20063;-74
2022/11/17 00:42:30;;;;;;;64.88;60.58;;;;;;;5.88;100.00;99486.91;5058335;28;20024;-73
2022/11/17 00:44:55;;;;;;;69.95;66.55;;;;;;;5.78;100.00;99479.97;5076298;28;20035;-73
2022/11/17 00:47:20;;;;;;;21.23;20.00;;;;;;;5.84;100.00;99490.81;5078239;28;20039;-74
2022/11/17 00:49:46;;;;;;;14.30;13.55;;;;;;;5.83;100.00;99489.16;5078449;28;20518;-72
2022/11/17 00:52:11;;;;;;;8.27;5.18;;;;;;;5.83;100.00;99482.13;5060375;28;20073;-73
2022/11/17 00:54:36;;;;;;;19.55;18.33;;;;;;;5.78;100.00;99477.34;5075801;28;20024;-73
2022/11/17 00:57:02;;;;;;;6.28;5.68;;;;;;;5.73;100.00;99452.63;5026660;28;20411;-73
2022/11/17 00:59:28;;;;;;;9.32;8.52;;;;;;;5.78;100.00;99455.59;5060704;28;20039;-74
2022/11/17 01:01:53;;;;;;;17.45;16.48;;;;;;;5.73;100.00;99442.97;5076307;28;20032;-73
2022/11/17 01:04:18;;;;;;;44.22;40.95;;;;;;;5.73;100.00;99448.19;5076295;28;20024;-73
2022/11/17 01:06:47;;;;;;;13.35;12.43;;;;;;;5.74;100.00;99439.34;5060299;28;20039;-73
2022/11/17 01:09:13;;;;;;;8.90;6.95;;;;;;;5.73;100.00;99442.16;5042666;28;20027;-73
2022/11/17 01:11:40;;;;;;;23.40;22.38;;;;;;;5.66;100.00;99451.56;5075700;28;20048;-73
2022/11/17 01:14:05;;;;;;;24.02;22.60;;;;;;;5.72;100.00;99443.91;5076900;28;20103;-73
2022/11/17 01:16:31;;;;;;;15.07;14.25;;;;;;;5.74;100.00;99476.00;5059097;28;20065;-73
2022/11/17 01:18:59;;;;;;;15.05;13.77;;;;;;;5.56;100.00;99423.69;5077666;28;20438;-73
2022/11/17 01:21:26;;;;;;;65.07;61.00;;;;;;;5.70;100.00;99487.75;5074189;28;20020;-74
2022/11/17 01:23:53;;;;;;;21.38;20.27;;;;;;;5.71;100.00;99428.38;5060693;28;20024;-73
2022/11/17 01:26:25;;;;;;;60.17;57.17;;;;;;;5.70;100.00;99422.31;5075813;28;20031;-73
2022/11/17 01:28:51;;;;;;;7.50;6.80;;;;;;;5.72;100.00;99417.75;5060888;28;20119;-73
2022/11/17 01:31:19;;;;;;;6.43;5.78;;;;;;;5.72;100.00;99404.66;5075783;28;20021;-74
2022/11/17 01:33:45;;;;;;;19.02;18.08;;;;;;;5.65;100.00;99401.03;5076125;28;20048;-73
2022/11/17 01:36:13;;;;;;;16.63;15.70;;;;;;;5.70;100.00;99411.03;5059942;28;20037;-73
2022/11/17 01:38:39;;;;;;;7.25;6.07;;;;;;;5.72;100.00;99409.88;5076160;28;20423;-73
2022/11/17 01:41:11;;;;;;;79.97;76.00;;;;;;;5.69;100.00;99399.75;5075845;28;20020;-73
2022/11/17 01:43:51;;;;;;;5.40;4.90;;;;;;;5.70;100.00;99401.38;5076188;28;20266;-74
2022/11/17 01:46:52;;;;;;;9.65;9.07;;;;;;;5.68;100.00;99390.25;5076597;28;20020;-73
2022/11/17 01:49:26;;;;;;;37.30;35.03;;;;;;;5.53;100.00;99376.06;4976747;28;20499;-73
2022/11/17 01:51:58;;;;;;;51.67;48.90;;;;;;;5.70;100.00;99375.19;4974805;28;20475;-74
2022/11/17 01:54:27;;;;;;;18.83;17.85;;;;;;;5.66;100.00;99346.88;4977083;28;20033;-73
2022/11/17 01:56:57;;;;;;;37.30;35.60;;;;;;;5.65;100.00;99355.72;4977001;28;20499;-73
2022/11/17 01:59:40;;;;;;;11.30;10.35;;;;;;;5.68;100.00;99345.75;4963512;28;20868;-73
2022/11/17 02:02:06;;;;;;;6.88;6.28;;;;;;;5.70;100.00;99343.78;4977426;28;20573;-72
2022/11/17 02:04:49;;;;;;;8.85;8.25;;;;;;;5.70;100.00;99349.00;4975648;28;20042;-72
2022/11/17 02:07:21;;;;;;;43.95;41.85;;;;;;;5.71;100.00;99329.72;4974722;28;20499;-72
2022/11/17 02:09:47;;;;;;;6.68;6.32;;;;;;;5.69;100.00;99320.41;4973952;28;20038;-72
2022/11/17 02:12:15;;;;;;;18.33;17.50;;;;;;;5.71;100.00;99319.25;4975301;28;20462;-74
2022/11/17 02:14:40;;;;;;;43.05;40.80;;;;;;;5.72;100.00;99320.06;4976168;28;20078;-74
2022/11/17 02:17:07;;;;;;;29.70;28.05;;;;;;;5.72;100.00;99302.56;4975920;28;20631;-74
2022/11/17 02:19:37;;;;;;;5.97;4.95;;;;;;;5.74;100.00;99292.75;4973924;28;20589;-73
2022/11/17 02:22:18;;;;;;;13.73;9.40;;;;;;;5.61;100.00;99266.19;4975811;28;20069;-74
2022/11/17 02:25:18;;;;;;;15.68;14.68;;;;;;;5.77;100.00;99284.59;5075630;28;20487;-73
2022/11/17 02:28:08;;;;;;;22.50;20.67;;;;;;;5.79;100.00;99315.84;5074035;28;20024;-73
2022/11/17 02:30:41;;;;;;;65.22;61.65;;;;;;;5.79;100.00;99297.53;5059209;28;20069;-73
2022/11/17 02:33:26;;;;;;;110.55;104.22;;;;;;;5.70;100.00;99257.41;5075450;28;20021;-73
2022/11/17 02:36:06;;;;;;;33.70;32.00;;;;;;;5.84;100.00;99271.72;5074553;28;20028;-73
2022/11/17 02:38:59;;;;;;;46.95;44.50;;;;;;;5.84;100.00;99291.84;5073905;28;20052;-73
2022/11/17 02:41:41;;;;;;;8.10;7.40;;;;;;;5.84;100.00;99299.69;5075094;28;20056;-73
2022/11/17 02:44:29;;;;;;;36.65;35.00;;;;;;;5.80;100.00;99246.00;5077113;28;20272;-73
2022/11/17 02:47:06;;;;;;;23.00;21.10;;;;;;;5.83;100.00;99266.63;5074607;28;20480;-73
2022/11/17 02:49:42;;;;;;;8.45;6.93;;;;;;;5.68;100.00;99241.06;5042302;28;20524;-73
2022/11/17 02:52:08;;;;;;;41.83;39.22;;;;;;;5.78;100.00;99265.28;5074871;28;20030;-73
2022/11/17 02:54:34;;;;;;;25.90;24.30;;;;;;;5.70;100.00;99253.97;5056711;28;20028;-73
2022/11/17 02:56:59;;;;;;;6.53;6.03;;;;;;;5.73;100.00;99257.09;5072548;28;20380;-74
2022/11/17 02:59:41;;;;;;;93.15;87.97;;;;;;;5.67;100.00;99260.34;5074148;28;20415;-73
2022/11/17 03:02:38;;;;;;;39.40;37.13;;;;;;;5.65;100.00;99293.69;5075615;28;20027;-73
2022/11/17 03:05:18;;;;;;;34.60;32.60;;;;;;;5.58;100.00;99295.31;5074328;28;20040;-73
2022/11/17 03:08:02;;;;;;;52.42;49.75;;;;;;;5.52;100.00;99256.69;5058466;28;20020;-74
2022/11/17 03:10:35;;;;;;;38.58;36.65;;;;;;;5.44;100.00;99277.56;5074939;28;20166;-73
2022/11/17 03:13:07;;;;;;;16.40;15.32;;;;;;;5.41;100.00;99260.38;5075264;28;20070;-73
2022/11/17 03:15:51;;;;;;;55.15;52.60;;;;;;;5.41;100.00;99262.19;5074492;28;20036;-73
2022/11/17 03:18:19;;;;;;;34.03;32.28;;;;;;;5.40;100.00;99261.38;5073980;28;20024;-72
2022/11/17 03:20:48;;;;;;;83.03;78.40;;;;;;;5.42;100.00;99261.19;5075156;28;20504;-73
2022/11/17 03:23:20;;;;;;;30.02;28.30;;;;;;;5.27;100.00;99225.16;5074490;28;20104;-73
2022/11/17 03:25:50;;;;;;;57.08;53.92;;;;;;;5.32;100.00;99246.44;5057891;28;20077;-73
2022/11/17 03:28:19;;;;;;;64.13;60.80;;;;;;;5.38;100.00;99291.25;5059080;28;20425;-73
2022/11/17 03:30:46;;;;;;;29.92;28.05;;;;;;;5.38;100.00;99265.09;5072379;28;20020;-73
2022/11/17 03:33:21;;;;;;;49.53;47.08;;;;;;;6.14;100.00;99245.94;5074731;28;20443;-74
2022/11/17 03:35:57;;;;;;;88.20;84.15;;;;;;;7.61;100.00;99339.53;5074678;28;20384;-73
2022/11/17 03:38:28;;;;;;;31.42;30.05;;;;;;;6.58;100.00;99347.91;5074355;28;20277;-73
2022/11/17 03:40:57;;;;;;;17.58;16.05;;;;;;;6.11;100.00;99372.81;5076762;28;20588;-73
2022/11/17 03:43:24;;;;;;;40.80;38.88;;;;;;;5.93;100.00;99369.44;5071978;28;20054;-72
2022/11/17 03:45:54;;;;;;;30.00;28.52;;;;;;;6.12;100.00;99364.00;5079136;28;20036;-72
2022/11/17 03:48:27;;;;;;;53.15;50.65;;;;;;;6.03;100.00;99372.81;5060659;28;20030;-72
2022/11/17 03:51:05;;;;;;;75.75;72.22;;;;;;;6.05;100.00;99364.75;5060423;28;20166;-72
2022/11/17 03:53:32;;;;;;;24.10;23.00;;;;;;;6.05;100.00;99347.25;5077592;28;20038;-72
2022/11/17 03:56:12;;;;;;;48.88;46.58;;;;;;;6.02;100.00;99344.16;5060969;28;20032;-72
2022/11/17 03:58:46;;;;;;;91.10;86.53;;;;;;;5.97;100.00;99355.91;5074404;28;20025;-72
2022/11/17 04:01:13;;;;;;;11.40;10.52;;;;;;;5.93;100.00;99319.69;5058415;28;20036;-72
2022/11/17 04:03:38;;;;;;;25.05;23.67;;;;;;;6.05;100.00;99331.53;5076244;28;20039;-72
2022/11/17 04:06:04;;;;;;;86.90;83.05;;;;;;;5.95;100.00;99329.06;5076201;28;20427;-72
2022/11/17 04:08:30;;;;;;;19.13;18.13;;;;;;;6.06;100.00;99327.13;5075994;28;20080;-72
2022/11/17 04:16:24;;;;;;;12.05;11.35;;;;;;;5.91;100.00;99321.63;5075183;28;20036;-72
2022/11/17 04:18:50;;;;;;;99.28;94.13;;;;;;;5.88;100.00;99301.84;5076823;28;20033;-73
2022/11/17 04:21:16;;;;;;;35.97;34.28;;;;;;;5.84;100.00;99308.34;5060468;28;20028;-74
2022/11/17 04:23:41;;;;;;;87.45;83.15;;;;;;;5.76;100.00;99296.03;5060845;28;20028;-73
2022/11/17 04:28:52;;;;;;;68.93;65.70;;;;;;;5.80;100.00;99253.84;5074718;28;20063;-73
2022/11/17 04:31:20;;;;;;;65.20;61.90;;;;;;;5.82;100.00;99262.38;5078752;28;20472;-73
2022/11/17 04:34:03;;;;;;;61.85;58.42;;;;;;;5.93;100.00;99238.50;5077652;28;20016;-73
2022/11/17 04:36:31;;;;;;;12.57;11.88;;;;;;;5.84;100.00;99203.63;5054424;28;20020;-73
2022/11/17 04:38:58;;;;;;;15.75;14.30;;;;;;;5.72;100.00;99202.28;5058066;28;20119;-74
2022/11/17 04:44:11;;;;;;;23.08;21.58;;;;;;;5.67;100.00;99270.00;5076022;28;20039;-73
2022/11/17 04:46:38;;;;;;;82.88;78.80;;;;;;;5.55;100.00;99266.81;5076409;28;20134;-73
2022/11/17 04:49:05;;;;;;;83.03;78.88;;;;;;;5.55;100.00;99269.44;5061223;28;20073;-73
2022/11/17 04:51:32;;;;;;;166.30;157.30;;;;;;;5.43;100.00;99278.56;5076954;28;20032;-74
2022/11/17 04:53:58;;;;;;;39.17;36.83;;;;;;;5.66;100.00;99256.09;5075777;28;20033;-74
2022/11/17 04:56:24;;;;;;;176.45;167.30;;;;;;;5.58;100.00;99287.47;5075043;28;20036;-74
2022/11/17 04:58:50;;;;;;;85.85;82.18;;;;;;;5.74;100.00;99257.91;5078173;28;20020;-74
2022/11/17 05:01:17;;;;;;;57.45;54.60;;;;;;;5.67;100.00;99234.16;5077442;28;20047;-73
2022/11/17 05:04:03;;;;;;;24.20;22.48;;;;;;;5.78;100.00;99244.34;5057660;28;20123;-74
2022/11/17 05:06:32;;;;;;;32.60;31.08;;;;;;;5.66;100.00;99223.84;5077101;28;20024;-73
2022/11/17 05:09:00;;;;;;;129.60;122.03;;;;;;;5.67;100.00;99260.34;5076013;28;20024;-73
2022/11/17 05:14:13;;;;;;;61.08;58.30;;;;;;;5.76;100.00;99230.59;5077752;28;20039;-73
2022/11/17 05:19:26;;;;;;;50.85;48.72;;;;;;;5.79;100.00;99190.19;5061333;28;20113;-73
2022/11/17 05:21:51;;;;;;;135.57;129.15;;;;;;;5.77;100.00;99197.41;5075916;28;20417;-73
2022/11/17 05:24:17;;;;;;;77.47;73.85;;;;;;;5.75;100.00;99200.16;5059642;28;20442;-73
2022/11/17 05:26:44;;;;;;;225.85;213.57;;;;;;;5.57;100.00;99205.53;5058089;28;20557;-73
2022/11/17 05:29:11;;;;;;;66.72;63.72;;;;;;;5.44;100.00;99191.22;5075159;28;20234;-73
2022/11/17 05:31:36;;;;;;;7.10;6.70;;;;;;;5.48;100.00;99175.03;5057443;28;20481;-73
2022/11/17 05:34:03;;;;;;;44.03;42.08;;;;;;;5.43;100.00;99166.84;5054433;28;20104;-73
2022/11/17 05:36:29;;;;;;;54.60;51.63;;;;;;;5.50;100.00;99175.72;5060556;28;20574;-73
2022/11/17 05:38:54;;;;;;;14.20;13.43;;;;;;;5.54;100.00;99160.53;5076295;28;20029;-73
2022/11/17 05:41:21;;;;;;;12.60;11.82;;;;;;;5.68;100.00;99162.53;5058755;28;20032;-73
2022/11/17 05:43:49;;;;;;;67.90;64.05;;;;;;;5.52;100.00;99144.97;5056979;28;20021;-73
2022/11/17 05:46:15;;;;;;;46.67;44.38;;;;;;;5.63;100.00;99143.03;5056123;28;20518;-73
2022/11/17 05:48:41;;;;;;;52.35;50.08;;;;;;;5.60;100.00;99128.47;5054944;28;20113;-73
2022/11/17 05:51:06;;;;;;;10.27;9.70;;;;;;;5.71;100.00;99141.25;5043275;28;20064;-73
2022/11/17 05:53:31;;;;;;;6.72;6.32;;;;;;;5.68;100.00;99120.66;5055153;28;20578;-72
2022/11/17 05:56:20;;;;;;;22.65;21.58;;;;;;;5.66;100.00;99124.38;5039568;28;20032;-74
2022/11/17 05:58:49;;;;;;;11.27;10.63;;;;;;;5.75;100.00;99095.47;5076630;28;20074;-73
2022/11/17 06:01:15;;;;;;;159.07;150.93;;;;;;;5.66;100.00;99088.59;5066725;28;20492;-74
2022/11/17 06:03:47;;;;;;;5.90;5.47;;;;;;;5.74;100.00;99075.50;5073194;28;20161;-74
2022/11/17 06:06:12;;;;;;;14.20;13.23;;;;;;;5.71;100.00;99062.75;5074550;28;20103;-77
2022/11/17 06:08:38;;;;;;;19.15;18.25;;;;;;;5.75;100.00;99100.69;5075785;28;20046;-75
2022/11/17 06:11:03;;;;;;;29.13;27.60;;;;;;;5.77;100.00;99072.56;5056494;28;20109;-75
2022/11/17 06:13:29;;;;;;;79.75;75.60;;;;;;;5.66;100.00;99040.63;5070671;28;20036;-77
2022/11/17 06:15:56;;;;;;;119.07;112.30;;;;;;;5.67;100.00;99030.00;5051176;28;20506;-75
2022/11/17 06:18:29;;;;;;;29.30;27.67;;;;;;;5.75;100.00;99064.06;5066787;28;20040;-74
2022/11/17 06:20:54;;;;;;;29.45;28.08;;;;;;;5.64;100.00;99019.88;5071485;28;20483;-74
2022/11/17 06:23:24;;;;;;;104.28;99.72;;;;;;;5.75;100.00;99094.66;5035031;28;20063;-73
2022/11/17 06:25:49;;;;;;;11.13;10.60;;;;;;;5.88;100.00;99053.09;5071174;28;20020;-73
2022/11/17 06:28:19;;;;;;;68.07;64.70;;;;;;;5.73;100.00;99018.09;5073762;28;20104;-74
2022/11/17 06:30:44;;;;;;;59.30;56.63;;;;;;;5.72;100.00;99048.66;5069760;28;20584;-73
2022/11/17 06:33:14;;;;;;;74.63;71.22;;;;;;;5.66;100.00;99031.00;5052990;28;20025;-74
2022/11/17 06:35:41;;;;;;;25.10;23.58;;;;;;;5.54;100.00;99025.25;5054314;28;20067;-74
2022/11/17 06:38:07;;;;;;;114.63;108.40;;;;;;;5.43;100.00;99009.06;5056400;28;20067;-73
2022/11/17 06:40:32;;;;;;;60.53;57.67;;;;;;;5.46;100.00;99032.28;5071391;28;20071;-74
2022/11/17 06:43:10;;;;;;;74.82;71.60;;;;;;;5.45;100.00;99046.34;5039159;28;20031;-74
2022/11/17 06:45:43;;;;;;;20.02;19.20;;;;;;;5.42;100.00;99081.50;5067820;28;20115;-74
2022/11/17 06:48:11;;;;;;;12.20;11.45;;;;;;;5.44;100.00;99055.16;5055221;28;20105;-74
2022/11/17 06:50:37;;;;;;;184.80;174.80;;;;;;;5.37;100.00;99068.06;5072509;28;20024;-74
2022/11/17 06:53:05;;;;;;;98.63;93.75;;;;;;;5.39;100.00;99083.63;5071007;28;20036;-75
2022/11/17 06:55:31;;;;;;;47.95;45.58;;;;;;;5.69;100.00;99063.88;5072901;28;20649;-74
2022/11/17 06:57:59;;;;;;;43.90;41.72;;;;;;;5.73;100.00;99068.63;5049390;28;20048;-74
2022/11/17 07:00:24;;;;;;;26.80;25.60;;;;;;;5.85;100.00;99078.78;5065647;28;20039;-74
2022/11/17 07:02:50;;;;;;;63.28;60.60;;;;;;;5.67;100.00;99074.50;5052618;28;20082;-74
2022/11/17 07:05:15;;;;;;;32.13;30.65;;;;;;;5.60;100.00;99081.38;5036997;28;20032;-74
2022/11/17 07:07:41;;;;;;;13.73;13.02;;;;;;;5.53;100.00;99096.06;5053898;28;20493;-74
2022/11/17 07:10:07;;;;;;;122.55;116.07;;;;;;;5.44;100.00;99107.50;5034379;28;20088;-74
2022/11/17 07:12:32;;;;;;;153.68;146.43;;;;;;;5.33;100.00;99112.06;5055307;28;20074;-74
2022/11/17 07:14:57;;;;;;;66.53;63.58;;;;;;;5.39;100.00;99105.34;5054722;28;20450;-74
2022/11/17 07:17:23;;;;;;;38.22;36.70;;;;;;;5.44;100.00;99112.72;5072295;28;20024;-74
2022/11/17 07:19:48;;;;;;;42.80;40.55;;;;;;;5.49;100.00;99084.31;5074254;28;20028;-74
2022/11/17 07:22:14;;;;;;;80.75;76.15;;;;;;;5.54;100.00;99105.56;5078639;28;20043;-74
2022/11/17 07:24:39;;;;;;;26.35;25.15;;;;;;;5.48;100.00;99082.66;5077900;28;20063;-74
2022/11/17 07:27:05;;;;;;;21.75;20.85;;;;;;;5.47;100.00;99054.88;5077471;28;20032;-75
2022/11/17 07:29:30;;;;;;;25.20;23.90;;;;;;;5.43;100.00;99079.72;5058635;28;20158;-74
2022/11/17 07:31:56;;;;;;;12.57;11.93;;;;;;;5.53;100.00;99093.44;5077446;28;20036;-74
2022/11/17 07:34:21;;;;;;;33.75;32.33;;;;;;;5.49;100.00;99060.75;5076788;28;20096;-73
2022/11/17 07:36:47;;;;;;;69.18;65.80;;;;;;;5.36;100.00;99101.28;5042682;28;20051;-73
2022/11/17 07:39:14;;;;;;;66.45;63.13;;;;;;;5.43;100.00;99069.25;5075774;28;20028;-74
2022/11/17 07:41:40;;;;;;;30.65;29.10;;;;;;;5.35;100.00;99047.28;5044192;28;20032;-74
2022/11/17 07:44:06;;;;;;;109.30;103.55;;;;;;;5.37;100.00;99078.53;5043473;28;20031;-73
2022/11/17 07:46:31;;;;;;;76.97;73.15;;;;;;;5.36;100.00;99069.06;5077560;28;20021;-73
2022/11/17 07:48:56;;;;;;;7.63;7.03;;;;;;;5.42;100.00;99057.13;5075838;28;20033;-73
2022/11/17 07:51:22;;;;;;;12.77;12.15;;;;;;;5.38;100.00;99071.50;5075447;28;20043;-73
2022/11/17 07:53:47;;;;;;;100.03;95.25;;;;;;;5.30;100.00;99036.50;5077694;28;20020;-74
2022/11/17 07:56:12;;;;;;;7.65;6.88;;;;;;;5.37;100.00;99055.00;5057688;28;20135;-73
2022/11/17 07:58:39;;;;;;;78.03;74.10;;;;;;;5.31;100.00;99047.78;5076414;28;20036;-75
2022/11/17 08:01:06;;;;;;;54.28;51.67;;;;;;;5.23;100.00;99037.31;5077469;28;20778;-73
2022/11/17 08:03:31;;;;;;;29.55;28.10;;;;;;;5.31;100.00;99035.53;5060631;28;20442;-74
2022/11/17 08:06:01;;;;;;;61.20;58.05;;;;;;;5.31;100.00;99038.16;5041952;28;20086;-73
2022/11/17 08:08:27;;;;;;;13.87;12.80;;;;;;;5.41;100.00;99024.09;5074819;28;20056;-74
2022/11/17 08:10:52;;;;;;;50.67;48.35;;;;;;;5.30;100.00;99040.94;5075929;28;20186;-74
2022/11/17 08:13:17;;;;;;;127.03;121.05;;;;;;;5.34;100.00;99040.44;5076771;28;20463;-75
2022/11/17 08:15:43;;;;;;;55.15;52.72;;;;;;;5.24;100.00;99050.22;5074547;28;20530;-74
2022/11/17 08:18:08;;;;;;;21.67;20.77;;;;;;;5.22;100.00;99130.63;5076675;28;20439;-74
2022/11/17 08:20:33;;;;;;;94.07;89.35;;;;;;;5.19;100.00;99204.19;5076381;28;20042;-74
2022/11/17 08:22:59;;;;;;;19.63;18.83;;;;;;;5.28;100.00;99205.88;5058396;28;20476;-74
2022/11/17 08:25:26;;;;;;;30.77;29.23;;;;;;;5.27;100.00;99191.16;5074348;28;20476;-74
2022/11/17 08:27:57;;;;;;;73.32;70.13;;;;;;;5.31;100.00;99239.59;5057215;28;20031;-74
2022/11/17 08:30:24;;;;;;;13.85;13.23;;;;;;;5.36;100.00;99212.94;5076319;28;20288;-74
2022/11/17 08:32:51;;;;;;;14.68;14.00;;;;;;;5.31;100.00;99161.09;5074450;28;20028;-74
2022/11/17 08:35:23;;;;;;;97.35;92.40;;;;;;;5.37;100.00;99225.03;5075334;28;20028;-74
2022/11/17 08:37:48;;;;;;;66.45;63.20;;;;;;;5.39;100.00;99189.06;5076861;28;20028;-74
2022/11/17 08:40:14;;;;;;;5.38;5.05;;;;;;;5.43;100.00;99184.34;5059616;28;20032;-73
2022/11/17 08:42:40;;;;;;;4.00;3.60;;;;;;;5.38;100.00;99160.44;5042361;28;20118;-74
2022/11/17 08:45:06;;;;;;;53.70;51.40;;;;;;;5.42;100.00;99182.69;5041239;28;20074;-74
2022/11/17 08:47:32;;;;;;;80.97;77.28;;;;;;;5.44;100.00;99159.81;5075784;28;20028;-74
2022/11/17 08:49:57;;;;;;;94.72;90.35;;;;;;;5.40;100.00;99168.97;5074961;28;20021;-74
2022/11/17 08:52:22;;;;;;;41.28;39.30;;;;;;;5.40;100.00;99167.19;5056557;28;20169;-74
2022/11/17 08:54:49;;;;;;;50.17;47.50;;;;;;;5.40;100.00;99161.09;5055809;28;20094;-74
2022/11/17 08:57:15;;;;;;;33.75;32.28;;;;;;;5.42;100.00;99148.69;5075462;28;20052;-74
2022/11/17 08:59:40;;;;;;;37.80;35.97;;;;;;;5.40;100.00;99141.03;5075043;28;20080;-74
2022/11/17 09:02:06;;;;;;;30.88;29.48;;;;;;;5.42;100.00;99151.31;5077252;28;20042;-74
2022/11/17 09:04:31;;;;;;;73.60;70.32;;;;;;;5.40;100.00;99150.66;5075913;28;20370;-74
2022/11/17 09:06:56;;;;;;;167.52;158.57;;;;;;;6.08;100.00;99121.69;5042389;28;20385;-74
2022/11/17 09:09:22;;;;;;;107.68;101.55;;;;;;;4.58;100.00;99199.88;5027618;28;20472;-74
2022/11/17 09:11:47;;;;;;;3.63;3.33;;;;;;;4.39;100.00;99144.22;5058647;28;20425;-75
2022/11/17 09:14:12;;;;;;;30.05;28.63;;;;;;;4.36;100.00;99144.53;5041616;28;20036;-74
2022/11/17 09:16:38;;;;;;;17.75;16.70;;;;;;;4.30;100.00;99135.50;5056260;28;20039;-74
2022/11/17 09:19:04;;;;;;;79.60;76.15;;;;;;;4.35;100.00;99226.47;5076867;28;20027;-74
2022/11/17 09:21:31;;;;;;;39.33;37.42;;;;;;;4.33;100.00;99156.09;5073003;28;20054;-74
2022/11/17 09:23:56;;;;;;;19.13;17.85;;;;;;;4.34;100.00;99156.91;5075339;28;20109;-74
2022/11/17 09:26:21;;;;;;;32.33;30.77;;;;;;;4.34;100.00;99167.38;5076265;28;20028;-74
2022/11/17 09:28:47;;;;;;;97.88;93.57;;;;;;;4.38;100.00;99187.00;5076426;28;20388;-74
2022/11/17 09:31:19;;;;;;;26.50;25.30;;;;;;;4.38;100.00;99188.75;5075212;28;20039;-74
2022/11/17 09:33:45;;;;;;;16.73;15.73;;;;;;;4.38;100.00;99181.78;5057197;28;20043;-74
2022/11/17 09:36:12;;;;;;;63.60;60.70;;;;;;;4.17;100.00;99207.38;5076286;28;20032;-74
2022/11/17 09:38:38;;;;;;;13.85;13.13;;;;;;;4.35;100.00;99169.00;5057061;28;20410;-74
2022/11/17 09:41:26;;;;;;;91.97;87.85;;;;;;;4.31;100.00;99178.94;5074292;28;20028;-74
2022/11/17 09:44:09;;;;;;;19.27;18.38;;;;;;;4.33;100.00;99165.72;5074690;28;20645;-75
2022/11/17 09:46:52;;;;;;;19.90;18.98;;;;;;;4.30;100.00;99176.47;5075080;28;20380;-72
2022/11/17 09:49:35;;;;;;;8.40;7.97;;;;;;;4.28;100.00;99200.13;5075344;28;20028;-74
2022/11/17 09:52:20;;;;;;;64.30;61.08;;;;;;;4.25;100.00;99210.06;5056454;28;20553;-74
2022/11/17 09:55:22;;;;;;;41.38;39.67;;;;;;;4.09;100.00;99167.16;5074604;28;20036;-74
2022/11/17 09:57:57;;;;;;;75.22;71.55;;;;;;;4.18;100.00;99182.88;5069349;28;20550;-74
2022/11/17 10:00:22;;;;;;;94.25;89.72;;;;;;;4.23;100.00;99185.88;5072803;28;20476;-74
2022/11/17 10:02:49;;;;;;;51.15;48.95;;;;;;;4.25;100.00;99178.72;5075618;28;20031;-74
2022/11/17 10:05:32;;;;;;;71.63;68.10;;;;;;;4.22;100.00;99194.69;5057672;28;20040;-74
2022/11/17 10:08:05;;;;;;;17.33;16.33;;;;;;;4.18;100.00;99162.00;5073604;28;20039;-74
2022/11/17 10:10:56;;;;;;;16.80;15.90;;;;;;;4.22;100.00;99176.41;5072519;28;20035;-73
2022/11/17 10:13:30;;;;;;;56.80;53.95;;;;;;;4.22;100.00;99190.25;5035850;28;20049;-73
2022/11/17 10:16:05;;;;;;;31.35;29.60;;;;;;;4.28;100.00;99167.97;5074612;28;20033;-74
2022/11/17 10:18:35;;;;;;;45.83;43.38;;;;;;;4.30;100.00;99171.25;5072873;28;20056;-73
2022/11/17 10:21:02;;;;;;;79.93;75.63;;;;;;;4.31;100.00;99171.09;5057890;28;20020;-73
2022/11/17 10:23:35;;;;;;;5.20;4.75;;;;;;;4.36;100.00;99154.97;5074592;28;20046;-73
2022/11/17 10:26:07;;;;;;;60.22;57.60;;;;;;;4.31;100.00;99178.09;5073823;28;20655;-73
2022/11/17 10:28:33;;;;;;;4.88;4.57;;;;;;;4.35;100.00;99153.31;5072438;28;20039;-73
2022/11/17 10:31:03;;;;;;;32.30;30.50;;;;;;;4.36;100.00;99154.16;5073920;28;20032;-73
2022/11/17 10:33:50;;;;;;;29.13;27.73;;;;;;;4.38;100.00;99162.66;5072571;28;20017;-73
2022/11/17 10:36:27;;;;;;;4.03;2.83;;;;;;;4.38;100.00;99152.19;5074407;28;20044;-73
2022/11/17 10:38:55;;;;;;;32.05;30.42;;;;;;;4.26;100.00;99128.13;5073911;28;20039;-74
2022/11/17 10:41:42;;;;;;;57.25;54.33;;;;;;;4.34;100.00;99154.31;5072931;28;20128;-73
2022/11/17 10:44:11;;;;;;;64.85;61.80;;;;;;;4.34;100.00;99154.31;5075414;28;20468;-73
2022/11/17 10:46:53;;;;;;;29.35;27.73;;;;;;;4.18;100.00;99156.78;5071649;28;20054;-73
2022/11/17 10:49:28;;;;;;;7.47;6.93;;;;;;;4.17;100.00;99160.38;5072221;28;20024;-73
2022/11/17 10:52:10;;;;;;;9.68;9.15;;;;;;;4.22;100.00;99148.47;5074543;28;20051;-74
2022/11/17 10:54:35;;;;;;;7.10;6.80;;;;;;;4.13;100.00;99144.97;5074143;28;20071;-74
2022/11/17 10:57:06;;;;;;;69.88;66.80;;;;;;;4.08;100.00;99139.41;5056631;28;20063;-76
2022/11/17 10:59:53;;;;;;;6.50;6.05;;;;;;;4.27;100.00;99150.66;5053073;28;20428;-74
2022/11/17 11:02:37;;;;;;;27.80;26.40;;;;;;;4.26;100.00;99175.94;5072812;28;20051;-74
2022/11/17 11:05:10;;;;;;;23.40;22.25;;;;;;;4.29;100.00;99182.66;5074525;28;20029;-74
2022/11/17 11:07:37;;;;;;;8.38;7.68;;;;;;;4.32;100.00;99190.19;5072582;28;20429;-74
2022/11/17 11:10:13;;;;;;;28.67;27.17;;;;;;;4.23;100.00;99165.00;5072653;28;20057;-74
2022/11/17 11:12:44;;;;;;;33.30;31.80;;;;;;;4.28;100.00;99187.06;5073191;28;20049;-74
2022/11/17 11:15:20;;;;;;;55.28;52.58;;;;;;;4.11;100.00;99149.53;5072837;28;20028;-74
2022/11/17 11:17:45;;;;;;;30.10;28.73;;;;;;;4.24;100.00;99209.22;5073630;28;20040;-72
2022/11/17 11:20:17;;;;;;;61.95;58.88;;;;;;;4.25;100.00;99194.41;5072704;28;20035;-74
2022/11/17 11:22:54;;;;;;;19.42;18.40;;;;;;;4.01;100.00;99193.19;5073617;28;20032;-73
2022/11/17 11:25:50;;;;;;;7.10;6.60;;;;;;;4.23;100.00;99217.22;5054896;28;20029;-73
2022/11/17 11:28:30;;;;;;;23.48;22.23;;;;;;;4.16;100.00;99211.78;5054405;28;20052;-74
2022/11/17 11:31:05;;;;;;;5.15;4.85;;;;;;;4.19;100.00;99234.97;5073061;28;20035;-74
2022/11/17 11:33:49;;;;;;;36.90;35.10;;;;;;;4.21;100.00;99229.59;5072668;28;20024;-74
2022/11/17 11:36:36;;;;;;;7.82;7.15;;;;;;;4.19;100.00;99266.31;5055193;28;20032;-73
2022/11/17 11:39:23;;;;;;;7.90;7.30;;;;;;;4.21;100.00;99230.41;5057437;28;20056;-74
2022/11/17 11:42:01;;;;;;;22.23;21.15;;;;;;;4.19;100.00;99244.59;5073860;28;20089;-74
2022/11/17 11:44:36;;;;;;;10.25;9.80;;;;;;;4.17;100.00;99244.75;5073566;28;20027;-74
2022/11/17 11:47:20;;;;;;;7.35;6.85;;;;;;;4.19;100.00;99242.00;5073089;28;20480;-74
2022/11/17 11:49:54;;;;;;;7.72;7.22;;;;;;;4.21;100.00;99250.50;5053920;28;20021;-74
2022/11/17 11:52:26;;;;;;;5.50;5.03;;;;;;;4.23;100.00;99257.22;5073611;28;20043;-74
2022/11/17 11:54:55;;;;;;;;;;;;;;;4.22;100.00;99242.50;5072508;28;20021;-72
2022/11/17 11:57:29;;;;;;;6.13;5.63;;;;;;;4.21;100.00;99251.31;5072344;28;19920;-74